createdAt,value
2019-01-17T00:00:30.052Z,21.27
2019-01-17T00:01:21.377Z,21.73
2019-01-17T00:02:16.424Z,21.60
2019-01-17T00:03:15.174Z,21.27
2019-01-17T00:04:06.265Z,21.07
2019-01-17T00:05:02.044Z,20.75
2019-01-17T00:05:43.915Z,21.35
2019-01-17T00:06:37.797Z,21.73
2019-01-17T00:07:36.389Z,21.48
2019-01-17T00:08:30.765Z,21.52
2019-01-17T00:09:41.046Z,21.60
2019-01-17T00:10:30.206Z,21.70
2019-01-17T00:11:15.927Z,21.48
2019-01-17T00:12:12.625Z,21.60
2019-01-17T00:13:07.953Z,22.27
2019-01-17T00:14:00.697Z,21.70
2019-01-17T00:14:47.481Z,21.93
2019-01-17T00:15:43.269Z,21.87
2019-01-17T00:16:41.723Z,21.90
2019-01-17T00:17:37.167Z,22.07
2019-01-17T00:18:27.532Z,22.10
2019-01-17T00:19:18.733Z,22.00
2019-01-17T00:20:14.279Z,22.00
2019-01-17T00:21:08.125Z,21.87
2019-01-17T00:21:53.239Z,22.02
2019-01-17T00:22:39.127Z,22.25
2019-01-17T00:23:30.723Z,21.62
2019-01-17T00:24:38.644Z,22.20
2019-01-17T00:25:34.450Z,21.70
2019-01-17T00:26:25.969Z,21.70
2019-01-17T00:27:11.213Z,22.05
2019-01-17T00:27:57.195Z,21.93
2019-01-17T00:28:55.887Z,22.05
2019-01-17T00:29:51.420Z,22.05
2019-01-17T00:30:43.034Z,22.55
2019-01-17T00:31:38.291Z,22.40
2019-01-17T00:32:37.139Z,21.75
2019-01-17T00:33:29.841Z,22.30
2019-01-17T00:34:26.199Z,22.30
2019-01-17T00:35:08.871Z,22.00
2019-01-17T00:36:00.198Z,21.80
2019-01-17T00:36:52.591Z,21.93
2019-01-17T00:38:03.739Z,21.87
2019-01-17T00:38:56.875Z,21.85
2019-01-17T00:39:59.053Z,22.00
2019-01-17T00:40:48.007Z,22.20
2019-01-17T00:41:39.730Z,21.52
2019-01-17T00:42:25.769Z,21.80
2019-01-17T00:43:18.528Z,22.58
2019-01-17T00:44:05.619Z,21.48
2019-01-17T00:45:02.339Z,21.77
2019-01-17T00:46:00.812Z,21.85
2019-01-17T00:46:46.473Z,21.75
2019-01-17T00:47:39.321Z,22.48
2019-01-17T00:48:50.029Z,21.80
2019-01-17T00:49:41.513Z,22.10
2019-01-17T00:50:48.197Z,22.00
2019-01-17T00:51:30.855Z,22.32
2019-01-17T00:52:17.935Z,22.40
2019-01-17T00:53:10.755Z,22.00
2019-01-17T00:54:11.407Z,22.48
2019-01-17T00:55:02.771Z,22.13
2019-01-17T00:55:54.365Z,21.93
2019-01-17T00:56:39.191Z,22.58
2019-01-17T00:57:34.839Z,21.85
2019-01-17T00:58:26.243Z,22.10
2019-01-17T00:59:13.775Z,22.60
2019-01-17T01:00:06.955Z,21.93
2019-01-17T01:00:49.029Z,21.95
2019-01-17T01:01:40.564Z,22.30
2019-01-17T01:02:28.309Z,22.40
2019-01-17T01:03:36.165Z,22.07
2019-01-17T01:04:37.322Z,22.20
2019-01-17T01:05:30.115Z,22.07
2019-01-17T01:06:13.624Z,22.37
2019-01-17T01:07:12.075Z,22.20
2019-01-17T01:08:20.212Z,22.07
2019-01-17T01:09:15.461Z,22.55
2019-01-17T01:10:00.872Z,22.32
2019-01-17T01:10:56.514Z,22.10
2019-01-17T01:12:03.209Z,22.15
2019-01-17T01:13:02.185Z,22.52
2019-01-17T01:13:54.826Z,22.50
2019-01-17T01:14:40.842Z,22.32
2019-01-17T01:15:33.735Z,22.37
2019-01-17T01:16:26.763Z,22.20
2019-01-17T01:17:40.066Z,22.52
2019-01-17T01:18:36.968Z,22.35
2019-01-17T01:19:32.332Z,22.48
2019-01-17T01:20:28.462Z,22.10
2019-01-17T01:21:14.146Z,22.75
2019-01-17T01:22:05.506Z,22.07
2019-01-17T01:23:01.078Z,22.00
2019-01-17T01:23:56.381Z,22.07
2019-01-17T01:24:49.134Z,22.10
2019-01-17T01:25:41.980Z,22.42
2019-01-17T01:26:33.336Z,22.50
2019-01-17T01:27:24.548Z,22.10
2019-01-17T01:28:08.476Z,22.42
2019-01-17T01:29:06.918Z,22.90
2019-01-17T01:30:05.215Z,22.62
2019-01-17T01:30:56.256Z,22.42
2019-01-17T01:31:47.774Z,22.27
2019-01-17T01:32:44.260Z,22.02
2019-01-17T01:33:37.082Z,22.37
2019-01-17T01:34:28.455Z,22.67
2019-01-17T01:35:19.698Z,22.30
2019-01-17T01:36:11.273Z,22.25
2019-01-17T01:37:06.962Z,22.80
2019-01-17T01:37:58.412Z,22.70
2019-01-17T01:39:09.312Z,22.82
2019-01-17T01:40:20.070Z,22.07
2019-01-17T01:41:01.148Z,22.25
2019-01-17T01:41:45.034Z,22.60
2019-01-17T01:42:37.710Z,22.07
2019-01-17T01:43:19.625Z,22.40
2019-01-17T01:44:05.284Z,22.62
2019-01-17T01:45:04.046Z,23.00
2019-01-17T01:46:01.292Z,22.50
2019-01-17T01:46:43.622Z,22.65
2019-01-17T01:47:34.936Z,22.37
2019-01-17T01:48:20.408Z,22.50
2019-01-17T01:49:18.860Z,22.60
2019-01-17T01:50:03.099Z,22.13
2019-01-17T01:51:07.284Z,22.42
2019-01-17T01:51:58.830Z,22.15
2019-01-17T01:52:54.052Z,22.55
2019-01-17T01:53:27.236Z,22.50
2019-01-17T01:54:00.244Z,22.40
2019-01-17T01:54:33.382Z,22.62
2019-01-17T01:55:06.491Z,21.90
2019-01-17T01:55:45.522Z,21.80
2019-01-17T01:56:18.626Z,22.17
2019-01-17T01:56:51.706Z,22.22
2019-01-17T01:57:24.835Z,21.93
2019-01-17T01:57:57.878Z,21.90
2019-01-17T01:58:30.898Z,22.02
2019-01-17T01:59:04.285Z,21.90
2019-01-17T01:59:37.406Z,22.07
2019-01-17T02:00:10.702Z,22.22
2019-01-17T02:00:43.641Z,22.22
2019-01-17T02:01:16.745Z,22.02
2019-01-17T02:01:49.764Z,22.20
2019-01-17T02:02:22.834Z,22.32
2019-01-17T02:02:55.927Z,22.50
2019-01-17T02:03:29.122Z,21.87
2019-01-17T02:04:02.111Z,22.00
2019-01-17T02:04:35.444Z,21.60
2019-01-17T02:05:08.658Z,21.60
2019-01-17T02:05:41.718Z,21.77
2019-01-17T02:06:14.891Z,22.25
2019-01-17T02:06:48.072Z,22.17
2019-01-17T02:07:21.143Z,21.80
2019-01-17T02:07:54.308Z,21.80
2019-01-17T02:08:27.404Z,22.00
2019-01-17T02:09:00.567Z,21.95
2019-01-17T02:09:33.660Z,21.82
2019-01-17T02:10:08.069Z,21.65
2019-01-17T02:10:41.199Z,21.93
2019-01-17T02:11:14.404Z,21.73
2019-01-17T02:11:47.661Z,21.95
2019-01-17T02:12:20.826Z,21.90
2019-01-17T02:12:53.955Z,21.55
2019-01-17T02:13:26.998Z,21.90
2019-01-17T02:14:00.053Z,21.60
2019-01-17T02:14:33.102Z,21.93
2019-01-17T02:15:06.229Z,21.62
2019-01-17T02:15:39.310Z,21.50
2019-01-17T02:16:12.349Z,22.13
2019-01-17T02:16:46.498Z,21.73
2019-01-17T02:17:19.677Z,22.37
2019-01-17T02:17:52.822Z,22.27
2019-01-17T02:18:25.969Z,21.80
2019-01-17T02:18:59.138Z,22.00
2019-01-17T02:19:32.153Z,22.10
2019-01-17T02:20:06.167Z,22.25
2019-01-17T02:20:40.017Z,22.22
2019-01-17T02:21:13.323Z,21.85
2019-01-17T02:21:46.341Z,21.90
2019-01-17T02:22:19.480Z,21.75
2019-01-17T02:22:52.501Z,21.80
2019-01-17T02:23:25.654Z,22.13
2019-01-17T02:23:59.499Z,22.27
2019-01-17T02:24:32.546Z,21.55
2019-01-17T02:25:06.053Z,22.10
2019-01-17T02:25:57.271Z,22.05
2019-01-17T02:26:30.587Z,22.13
2019-01-17T02:27:03.710Z,21.90
2019-01-17T02:27:36.643Z,21.90
2019-01-17T02:28:09.713Z,22.00
2019-01-17T02:28:42.810Z,21.93
2019-01-17T02:29:15.869Z,21.37
2019-01-17T02:29:48.783Z,22.10
2019-01-17T02:30:21.820Z,22.20
2019-01-17T02:30:54.887Z,21.85
2019-01-17T02:31:27.983Z,22.10
2019-01-17T02:32:01.356Z,21.90
2019-01-17T02:32:34.414Z,21.68
2019-01-17T02:33:07.528Z,21.82
2019-01-17T02:33:40.572Z,21.80
2019-01-17T02:34:13.671Z,22.02
2019-01-17T02:34:46.763Z,21.75
2019-01-17T02:35:20.755Z,21.80
2019-01-17T02:35:53.835Z,21.77
2019-01-17T02:36:27.027Z,22.05
2019-01-17T02:37:00.248Z,21.57
2019-01-17T02:37:33.339Z,21.85
2019-01-17T02:38:06.488Z,21.82
2019-01-17T02:38:39.530Z,21.45
2019-01-17T02:39:12.639Z,21.80
2019-01-17T02:39:45.845Z,21.90
2019-01-17T02:40:19.068Z,21.65
2019-01-17T02:40:52.235Z,21.70
2019-01-17T02:41:25.452Z,21.80
2019-01-17T02:41:58.647Z,21.80
2019-01-17T02:42:31.850Z,21.62
2019-01-17T02:43:05.027Z,21.30
2019-01-17T02:43:38.086Z,21.68
2019-01-17T02:44:11.237Z,21.45
2019-01-17T02:44:44.406Z,22.02
2019-01-17T02:45:17.645Z,22.02
2019-01-17T02:45:50.732Z,21.73
2019-01-17T02:46:23.693Z,21.85
2019-01-17T02:46:56.767Z,21.75
2019-01-17T02:47:29.838Z,22.00
2019-01-17T02:48:02.953Z,22.00
2019-01-17T02:48:36.109Z,21.90
2019-01-17T02:49:10.845Z,21.55
2019-01-17T02:49:43.883Z,22.15
2019-01-17T02:50:17.001Z,21.80
2019-01-17T02:50:50.281Z,22.15
2019-01-17T02:51:23.529Z,22.10
2019-01-17T02:51:56.753Z,22.13
2019-01-17T02:52:29.933Z,21.70
2019-01-17T02:53:03.105Z,21.52
2019-01-17T02:53:36.227Z,21.90
2019-01-17T02:54:09.294Z,22.30
2019-01-17T02:54:42.384Z,21.57
2019-01-17T02:55:15.425Z,21.80
2019-01-17T02:55:48.459Z,21.80
2019-01-17T02:56:21.583Z,22.15
2019-01-17T02:56:54.609Z,21.77
2019-01-17T02:57:27.699Z,21.60
2019-01-17T02:58:00.774Z,21.77
2019-01-17T02:58:33.807Z,21.40
2019-01-17T02:59:06.931Z,22.10
2019-01-17T02:59:40.053Z,21.82
2019-01-17T03:00:15.596Z,21.68
2019-01-17T03:00:48.575Z,21.52
2019-01-17T03:01:21.714Z,21.60
2019-01-17T03:01:54.749Z,21.68
2019-01-17T03:02:27.802Z,22.05
2019-01-17T03:03:00.845Z,21.48
2019-01-17T03:03:34.004Z,21.65
2019-01-17T03:04:07.131Z,21.95
2019-01-17T03:04:40.172Z,22.00
2019-01-17T03:05:13.541Z,21.90
2019-01-17T03:05:46.621Z,21.75
2019-01-17T03:06:19.662Z,21.30
2019-01-17T03:06:52.735Z,21.35
2019-01-17T03:07:25.861Z,21.57
2019-01-17T03:07:58.978Z,21.50
2019-01-17T03:08:32.011Z,21.50
2019-01-17T03:09:06.896Z,21.40
2019-01-17T03:09:40.069Z,21.50
2019-01-17T03:10:15.937Z,21.87
2019-01-17T03:11:05.912Z,21.75
2019-01-17T03:11:38.985Z,21.42
2019-01-17T03:12:12.129Z,21.45
2019-01-17T03:12:45.311Z,21.85
2019-01-17T03:13:18.265Z,22.20
2019-01-17T03:13:51.293Z,21.42
2019-01-17T03:14:24.263Z,21.20
2019-01-17T03:14:57.231Z,21.68
2019-01-17T03:15:30.298Z,21.70
2019-01-17T03:16:03.436Z,21.60
2019-01-17T03:16:36.553Z,21.80
2019-01-17T03:17:09.677Z,21.87
2019-01-17T03:17:42.816Z,21.50
2019-01-17T03:18:15.989Z,21.65
2019-01-17T03:18:49.031Z,21.48
2019-01-17T03:19:22.177Z,22.15
2019-01-17T03:19:55.326Z,22.13
2019-01-17T03:20:28.474Z,21.27
2019-01-17T03:21:02.229Z,21.65
2019-01-17T03:21:35.361Z,21.07
2019-01-17T03:22:08.407Z,21.50
2019-01-17T03:22:41.433Z,21.57
2019-01-17T03:23:14.956Z,21.57
2019-01-17T03:23:47.993Z,21.95
2019-01-17T03:24:21.121Z,21.80
2019-01-17T03:24:54.155Z,21.70
2019-01-17T03:25:27.189Z,21.45
2019-01-17T03:26:00.323Z,21.20
2019-01-17T03:26:33.501Z,22.00
2019-01-17T03:27:06.647Z,21.65
2019-01-17T03:27:40.279Z,21.65
2019-01-17T03:28:13.343Z,21.85
2019-01-17T03:28:46.517Z,21.57
2019-01-17T03:29:19.461Z,21.70
2019-01-17T03:29:52.639Z,21.80
2019-01-17T03:30:25.793Z,21.57
2019-01-17T03:30:58.905Z,21.68
2019-01-17T03:31:32.061Z,21.57
2019-01-17T03:32:05.681Z,21.50
2019-01-17T03:32:38.726Z,22.27
2019-01-17T03:33:11.833Z,21.60
2019-01-17T03:33:44.994Z,21.55
2019-01-17T03:34:18.321Z,21.90
2019-01-17T03:34:51.474Z,21.75
2019-01-17T03:35:24.568Z,21.40
2019-01-17T03:35:57.771Z,21.50
2019-01-17T03:36:30.953Z,21.20
2019-01-17T03:37:04.203Z,21.40
2019-01-17T03:37:37.403Z,22.35
2019-01-17T03:38:10.504Z,21.52
2019-01-17T03:38:43.529Z,21.37
2019-01-17T03:39:16.681Z,21.97
2019-01-17T03:39:49.717Z,21.68
2019-01-17T03:40:22.888Z,21.70
2019-01-17T03:41:02.624Z,21.57
2019-01-17T03:41:35.903Z,21.10
2019-01-17T03:42:08.957Z,22.25
2019-01-17T03:42:42.137Z,21.82
2019-01-17T03:43:15.200Z,21.50
2019-01-17T03:43:49.283Z,22.05
2019-01-17T03:44:22.487Z,22.40
2019-01-17T03:44:55.453Z,21.65
2019-01-17T03:45:28.523Z,21.55
2019-01-17T03:46:01.654Z,21.90
2019-01-17T03:46:34.794Z,21.77
2019-01-17T03:47:07.896Z,21.90
2019-01-17T03:47:41.036Z,21.97
2019-01-17T03:48:14.151Z,21.68
2019-01-17T03:48:47.331Z,21.60
2019-01-17T03:49:20.351Z,22.02
2019-01-17T03:49:53.472Z,22.00
2019-01-17T03:50:26.617Z,21.52
2019-01-17T03:50:59.638Z,22.05
2019-01-17T03:51:32.768Z,21.68
2019-01-17T03:52:05.892Z,21.65
2019-01-17T03:52:39.135Z,21.50
2019-01-17T03:53:12.202Z,21.75
2019-01-17T03:53:45.270Z,21.75
2019-01-17T03:54:18.382Z,21.85
2019-01-17T03:54:53.949Z,21.85
2019-01-17T03:55:26.719Z,21.70
2019-01-17T03:55:59.840Z,21.62
2019-01-17T03:56:32.993Z,21.77
2019-01-17T03:57:06.134Z,22.00
2019-01-17T03:57:39.303Z,21.87
2019-01-17T03:58:12.463Z,21.90
2019-01-17T03:58:45.617Z,21.97
2019-01-17T03:59:18.795Z,21.68
2019-01-17T03:59:51.902Z,21.68
2019-01-17T04:00:24.969Z,21.97
2019-01-17T04:00:58.104Z,21.73
2019-01-17T04:01:31.155Z,21.60
2019-01-17T04:02:04.352Z,21.55
2019-01-17T04:02:37.410Z,21.95
2019-01-17T04:03:10.578Z,21.82
2019-01-17T04:03:43.624Z,21.70
2019-01-17T04:04:16.698Z,21.82
2019-01-17T04:04:49.623Z,21.68
2019-01-17T04:05:23.819Z,21.62
2019-01-17T04:05:56.972Z,21.77
2019-01-17T04:06:29.982Z,21.65
2019-01-17T04:07:03.005Z,21.75
2019-01-17T04:07:36.056Z,21.87
2019-01-17T04:08:09.227Z,21.48
2019-01-17T04:08:42.395Z,21.90
2019-01-17T04:09:15.508Z,21.82
2019-01-17T04:09:48.656Z,21.75
2019-01-17T04:10:21.689Z,21.77
2019-01-17T04:10:54.630Z,21.35
2019-01-17T04:11:28.034Z,22.80
2019-01-17T04:12:01.238Z,21.60
2019-01-17T04:12:34.332Z,21.52
2019-01-17T04:13:07.490Z,21.80
2019-01-17T04:13:40.635Z,21.85
2019-01-17T04:14:13.685Z,21.57
2019-01-17T04:14:46.737Z,22.58
2019-01-17T04:15:19.782Z,21.70
2019-01-17T04:15:52.865Z,21.73
2019-01-17T04:16:25.830Z,21.93
2019-01-17T04:16:58.845Z,21.60
2019-01-17T04:17:31.870Z,21.75
2019-01-17T04:18:04.999Z,21.70
2019-01-17T04:18:38.146Z,21.80
2019-01-17T04:19:11.467Z,22.05
2019-01-17T04:19:44.537Z,21.93
2019-01-17T04:20:17.646Z,21.77
2019-01-17T04:20:50.590Z,21.82
2019-01-17T04:21:23.648Z,21.95
2019-01-17T04:21:56.668Z,21.75
2019-01-17T04:22:29.776Z,22.13
2019-01-17T04:23:02.946Z,21.73
2019-01-17T04:23:35.956Z,21.95
2019-01-17T04:24:09.092Z,21.90
2019-01-17T04:24:42.101Z,21.80
2019-01-17T04:25:15.248Z,21.73
2019-01-17T04:25:50.219Z,22.07
2019-01-17T04:26:23.288Z,22.62
2019-01-17T04:26:56.418Z,22.20
2019-01-17T04:27:29.546Z,22.05
2019-01-17T04:28:02.644Z,21.87
2019-01-17T04:28:35.782Z,22.10
2019-01-17T04:29:08.946Z,21.95
2019-01-17T04:29:41.970Z,21.90
2019-01-17T04:30:17.278Z,22.07
2019-01-17T04:30:50.384Z,22.40
2019-01-17T04:31:23.388Z,21.75
2019-01-17T04:31:56.592Z,21.82
2019-01-17T04:32:29.700Z,22.22
2019-01-17T04:33:02.940Z,21.77
2019-01-17T04:33:36.030Z,21.62
2019-01-17T04:34:09.479Z,21.80
2019-01-17T04:34:42.558Z,22.27
2019-01-17T04:35:15.715Z,21.80
2019-01-17T04:35:50.534Z,22.17
2019-01-17T04:36:23.706Z,21.70
2019-01-17T04:36:58.462Z,21.90
2019-01-17T04:37:31.704Z,21.93
2019-01-17T04:38:04.890Z,21.90
2019-01-17T04:38:38.054Z,22.58
2019-01-17T04:39:11.125Z,22.65
2019-01-17T04:39:44.307Z,21.97
2019-01-17T04:40:18.562Z,21.82
2019-01-17T04:40:51.677Z,22.02
2019-01-17T04:41:24.763Z,22.27
2019-01-17T04:41:57.923Z,21.77
2019-01-17T04:42:31.098Z,22.20
2019-01-17T04:43:04.237Z,21.95
2019-01-17T04:43:37.357Z,22.48
2019-01-17T04:44:10.399Z,22.00
2019-01-17T04:44:43.621Z,21.85
2019-01-17T04:45:16.724Z,23.00
2019-01-17T04:45:49.816Z,22.17
2019-01-17T04:46:22.985Z,21.95
2019-01-17T04:46:56.111Z,22.07
2019-01-17T04:47:29.268Z,21.90
2019-01-17T04:48:02.360Z,21.73
2019-01-17T04:48:35.366Z,21.93
2019-01-17T04:49:08.329Z,21.85
2019-01-17T04:49:41.293Z,21.77
2019-01-17T04:50:16.146Z,22.10
2019-01-17T04:50:49.338Z,21.95
2019-01-17T04:51:22.446Z,22.20
2019-01-17T04:51:55.346Z,21.87
2019-01-17T04:52:28.352Z,21.70
2019-01-17T04:53:01.532Z,21.77
2019-01-17T04:53:34.584Z,22.02
2019-01-17T04:54:07.770Z,21.93
2019-01-17T04:54:40.816Z,21.87
2019-01-17T04:55:14.488Z,21.42
2019-01-17T04:55:47.555Z,22.10
2019-01-17T04:56:21.434Z,22.10
2019-01-17T04:56:54.422Z,22.22
2019-01-17T04:57:28.099Z,21.62
2019-01-17T04:58:01.147Z,21.55
2019-01-17T04:58:34.351Z,21.70
2019-01-17T04:59:07.269Z,22.07
2019-01-17T04:59:40.304Z,22.02
2019-01-17T05:00:18.965Z,21.95
2019-01-17T05:00:52.128Z,22.00
2019-01-17T05:01:25.265Z,22.00
2019-01-17T05:01:58.265Z,21.85
2019-01-17T05:02:31.408Z,22.02
2019-01-17T05:03:04.560Z,21.62
2019-01-17T05:03:37.582Z,21.70
2019-01-17T05:04:10.656Z,22.13
2019-01-17T05:04:43.704Z,21.45
2019-01-17T05:05:16.774Z,21.90
2019-01-17T05:05:49.922Z,21.60
2019-01-17T05:06:23.112Z,21.85
2019-01-17T05:06:56.155Z,21.87
2019-01-17T05:07:29.277Z,21.37
2019-01-17T05:08:02.319Z,22.20
2019-01-17T05:08:35.434Z,21.73
2019-01-17T05:09:08.498Z,21.70
2019-01-17T05:09:41.605Z,21.80
2019-01-17T05:10:16.911Z,22.00
2019-01-17T05:10:49.969Z,22.00
2019-01-17T05:11:23.002Z,21.77
2019-01-17T05:11:56.038Z,21.77
2019-01-17T05:12:29.097Z,21.87
2019-01-17T05:13:02.233Z,21.95
2019-01-17T05:13:35.194Z,21.90
2019-01-17T05:14:08.215Z,21.82
2019-01-17T05:14:41.345Z,21.70
2019-01-17T05:15:14.434Z,21.87
2019-01-17T05:15:47.468Z,22.10
2019-01-17T05:16:20.758Z,22.00
2019-01-17T05:16:54.388Z,21.57
2019-01-17T05:17:27.510Z,21.75
2019-01-17T05:18:00.533Z,22.05
2019-01-17T05:18:33.573Z,21.75
2019-01-17T05:19:06.617Z,21.70
2019-01-17T05:19:39.557Z,21.90
2019-01-17T05:20:14.799Z,21.80
2019-01-17T05:20:47.894Z,21.75
2019-01-17T05:21:20.938Z,21.60
2019-01-17T05:21:54.003Z,21.57
2019-01-17T05:22:27.068Z,21.90
2019-01-17T05:23:00.177Z,21.80
2019-01-17T05:23:33.431Z,21.82
2019-01-17T05:24:06.574Z,21.75
2019-01-17T05:24:39.495Z,21.62
2019-01-17T05:25:13.645Z,21.40
2019-01-17T05:25:46.787Z,22.02
2019-01-17T05:26:19.930Z,21.90
2019-01-17T05:26:52.998Z,22.05
2019-01-17T05:27:26.013Z,22.82
2019-01-17T05:27:58.978Z,21.90
2019-01-17T05:28:32.096Z,22.00
2019-01-17T05:29:05.015Z,22.15
2019-01-17T05:29:38.186Z,21.95
2019-01-17T05:30:16.497Z,21.65
2019-01-17T05:30:49.537Z,22.32
2019-01-17T05:31:22.683Z,22.10
2019-01-17T05:31:55.734Z,22.37
2019-01-17T05:32:28.853Z,22.40
2019-01-17T05:33:01.683Z,22.25
2019-01-17T05:33:34.758Z,22.00
2019-01-17T05:34:07.857Z,22.25
2019-01-17T05:34:40.889Z,22.15
2019-01-17T05:35:14.227Z,22.00
2019-01-17T05:35:47.354Z,22.15
2019-01-17T05:36:20.455Z,22.55
2019-01-17T05:36:53.403Z,22.35
2019-01-17T05:37:26.596Z,22.40
2019-01-17T05:37:59.558Z,22.30
2019-01-17T05:38:32.612Z,22.30
2019-01-17T05:39:06.931Z,22.50
2019-01-17T05:39:40.143Z,22.85
2019-01-17T05:40:16.324Z,22.55
2019-01-17T05:40:49.378Z,22.62
2019-01-17T05:41:22.493Z,22.37
2019-01-17T05:41:55.778Z,22.67
2019-01-17T05:42:28.907Z,22.60
2019-01-17T05:43:02.009Z,22.58
2019-01-17T05:43:35.061Z,22.87
2019-01-17T05:44:08.231Z,22.60
2019-01-17T05:44:41.333Z,22.77
2019-01-17T05:45:14.866Z,22.73
2019-01-17T05:45:47.893Z,22.37
2019-01-17T05:46:21.069Z,22.58
2019-01-17T05:46:54.189Z,23.02
2019-01-17T05:47:27.211Z,22.77
2019-01-17T05:48:00.344Z,22.42
2019-01-17T05:48:33.510Z,22.13
2019-01-17T05:49:06.617Z,22.35
2019-01-17T05:49:39.779Z,22.52
2019-01-17T05:50:14.393Z,22.27
2019-01-17T05:50:47.476Z,22.60
2019-01-17T05:51:20.385Z,22.27
2019-01-17T05:51:53.435Z,22.48
2019-01-17T05:52:26.479Z,22.42
2019-01-17T05:53:01.139Z,22.10
2019-01-17T05:53:34.271Z,22.40
2019-01-17T05:54:08.309Z,22.50
2019-01-17T05:54:41.441Z,22.65
2019-01-17T05:55:19.761Z,22.40
2019-01-17T05:55:49.565Z,22.77
2019-01-17T05:56:22.599Z,22.20
2019-01-17T05:56:55.503Z,22.35
2019-01-17T05:57:28.583Z,22.50
2019-01-17T05:58:01.491Z,22.85
2019-01-17T05:58:34.544Z,22.60
2019-01-17T05:59:07.582Z,22.52
2019-01-17T05:59:40.729Z,22.67
2019-01-17T06:00:17.599Z,22.50
2019-01-17T06:00:50.673Z,22.35
2019-01-17T06:01:23.681Z,22.20
2019-01-17T06:01:56.633Z,22.70
2019-01-17T06:02:29.679Z,22.42
2019-01-17T06:03:02.753Z,22.40
2019-01-17T06:03:35.853Z,22.90
2019-01-17T06:04:09.037Z,22.07
2019-01-17T06:04:42.127Z,23.10
2019-01-17T06:05:16.441Z,22.80
2019-01-17T06:05:49.613Z,22.40
2019-01-17T06:06:22.707Z,22.42
2019-01-17T06:06:55.904Z,22.50
2019-01-17T06:07:28.990Z,22.17
2019-01-17T06:08:02.081Z,22.52
2019-01-17T06:08:35.249Z,22.37
2019-01-17T06:09:08.857Z,22.35
2019-01-17T06:09:42.005Z,22.27
2019-01-17T06:10:14.903Z,21.85
2019-01-17T06:10:48.071Z,21.82
2019-01-17T06:11:21.197Z,21.80
2019-01-17T06:11:54.225Z,21.62
2019-01-17T06:12:27.161Z,21.68
2019-01-17T06:13:00.465Z,21.85
2019-01-17T06:13:33.584Z,21.80
2019-01-17T06:14:06.553Z,21.95
2019-01-17T06:14:39.731Z,21.85
2019-01-17T06:15:15.143Z,22.40
2019-01-17T06:15:48.375Z,21.85
2019-01-17T06:16:21.433Z,22.10
2019-01-17T06:16:54.470Z,22.55
2019-01-17T06:17:28.787Z,22.20
2019-01-17T06:18:01.927Z,21.87
2019-01-17T06:18:35.087Z,22.40
2019-01-17T06:19:08.223Z,22.10
2019-01-17T06:19:41.385Z,22.27
2019-01-17T06:20:14.727Z,21.95
2019-01-17T06:20:47.767Z,22.32
2019-01-17T06:21:20.904Z,22.27
2019-01-17T06:21:53.994Z,22.35
2019-01-17T06:22:27.045Z,22.35
2019-01-17T06:23:00.096Z,22.37
2019-01-17T06:23:33.127Z,22.35
2019-01-17T06:24:06.319Z,22.02
2019-01-17T06:24:39.417Z,22.07
2019-01-17T06:25:12.543Z,22.20
2019-01-17T06:25:45.561Z,22.67
2019-01-17T06:26:20.551Z,22.45
2019-01-17T06:26:53.462Z,22.05
2019-01-17T06:27:26.643Z,21.90
2019-01-17T06:27:59.783Z,22.35
2019-01-17T06:28:32.943Z,22.60
2019-01-17T06:29:06.047Z,22.00
2019-01-17T06:29:39.187Z,22.20
2019-01-17T06:30:12.962Z,22.30
2019-01-17T06:30:45.993Z,22.40
2019-01-17T06:31:19.089Z,22.30
2019-01-17T06:31:52.245Z,22.67
2019-01-17T06:32:25.347Z,22.30
2019-01-17T06:32:58.488Z,22.58
2019-01-17T06:33:31.456Z,22.32
2019-01-17T06:34:04.522Z,22.40
2019-01-17T06:34:37.658Z,22.85
2019-01-17T06:35:12.161Z,22.85
2019-01-17T06:35:45.154Z,22.85
2019-01-17T06:36:18.458Z,22.37
2019-01-17T06:36:51.600Z,22.25
2019-01-17T06:37:24.810Z,22.50
2019-01-17T06:37:57.921Z,22.35
2019-01-17T06:38:31.293Z,22.17
2019-01-17T06:39:07.379Z,22.45
2019-01-17T06:39:40.679Z,22.80
2019-01-17T06:40:22.285Z,22.17
2019-01-17T06:40:55.453Z,22.35
2019-01-17T06:41:29.444Z,22.10
2019-01-17T06:42:02.879Z,21.82
2019-01-17T06:42:35.990Z,21.75
2019-01-17T06:43:10.529Z,21.77
2019-01-17T06:43:43.453Z,21.25
2019-01-17T06:44:20.256Z,21.07
2019-01-17T06:44:52.702Z,21.42
2019-01-17T06:45:25.856Z,21.45
2019-01-17T06:45:58.999Z,21.07
2019-01-17T06:46:32.156Z,21.33
2019-01-17T06:47:05.372Z,21.57
2019-01-17T06:47:38.522Z,21.27
2019-01-17T06:48:11.732Z,21.50
2019-01-17T06:48:44.931Z,21.17
2019-01-17T06:49:18.007Z,21.20
2019-01-17T06:49:51.235Z,21.40
2019-01-17T06:50:24.381Z,21.50
2019-01-17T06:50:57.573Z,21.23
2019-01-17T06:51:30.559Z,21.60
2019-01-17T06:52:03.747Z,21.55
2019-01-17T06:52:36.799Z,21.50
2019-01-17T06:53:09.914Z,21.60
2019-01-17T06:53:43.002Z,21.50
2019-01-17T06:54:16.187Z,21.40
2019-01-17T06:54:49.261Z,21.80
2019-01-17T06:55:22.416Z,21.52
2019-01-17T06:55:55.614Z,21.68
2019-01-17T06:56:28.829Z,21.48
2019-01-17T06:57:01.764Z,21.55
2019-01-17T06:57:34.896Z,22.05
2019-01-17T06:58:08.094Z,22.00
2019-01-17T06:58:41.158Z,22.02
2019-01-17T06:59:14.266Z,22.32
2019-01-17T06:59:47.263Z,21.95
2019-01-17T07:00:20.246Z,21.80
2019-01-17T07:00:53.295Z,22.00
2019-01-17T07:01:26.576Z,22.07
2019-01-17T07:01:59.725Z,22.17
2019-01-17T07:02:34.139Z,21.97
2019-01-17T07:03:07.320Z,22.10
2019-01-17T07:03:40.478Z,22.60
2019-01-17T07:04:13.552Z,21.93
2019-01-17T07:04:46.650Z,22.35
2019-01-17T07:05:19.859Z,22.20
2019-01-17T07:05:52.873Z,22.77
2019-01-17T07:06:25.971Z,22.50
2019-01-17T07:06:59.064Z,22.73
2019-01-17T07:07:32.076Z,22.95
2019-01-17T07:08:05.237Z,22.75
2019-01-17T07:08:38.298Z,22.77
2019-01-17T07:09:11.481Z,22.50
2019-01-17T07:09:44.574Z,23.00
2019-01-17T07:10:17.721Z,22.67
2019-01-17T07:10:50.752Z,23.00
2019-01-17T07:11:23.888Z,23.42
2019-01-17T07:11:56.902Z,23.67
2019-01-17T07:12:29.928Z,23.32
2019-01-17T07:13:03.258Z,23.05
2019-01-17T07:13:36.400Z,23.27
2019-01-17T07:14:09.333Z,23.20
2019-01-17T07:14:42.342Z,23.38
2019-01-17T07:15:17.170Z,23.15
2019-01-17T07:15:50.255Z,23.05
2019-01-17T07:16:23.256Z,23.32
2019-01-17T07:16:56.327Z,23.38
2019-01-17T07:17:29.350Z,22.98
2019-01-17T07:18:02.444Z,23.62
2019-01-17T07:18:35.604Z,23.22
2019-01-17T07:19:08.835Z,23.12
2019-01-17T07:19:41.870Z,22.93
2019-01-17T07:20:15.318Z,23.38
2019-01-17T07:20:48.740Z,23.10
2019-01-17T07:21:21.795Z,22.75
2019-01-17T07:21:54.838Z,22.80
2019-01-17T07:22:27.888Z,22.60
2019-01-17T07:23:01.026Z,23.00
2019-01-17T07:23:34.976Z,22.50
2019-01-17T07:24:08.002Z,23.32
2019-01-17T07:24:41.040Z,22.52
2019-01-17T07:25:14.170Z,22.82
2019-01-17T07:25:47.184Z,23.02
2019-01-17T07:26:20.475Z,22.60
2019-01-17T07:26:53.424Z,22.32
2019-01-17T07:27:26.474Z,22.27
2019-01-17T07:27:59.526Z,22.30
2019-01-17T07:28:32.526Z,22.10
2019-01-17T07:29:05.680Z,21.70
2019-01-17T07:29:38.740Z,22.00
2019-01-17T07:30:18.581Z,22.10
2019-01-17T07:30:52.714Z,21.90
2019-01-17T07:31:25.733Z,21.93
2019-01-17T07:31:58.870Z,21.73
2019-01-17T07:32:32.044Z,22.00
2019-01-17T07:33:06.218Z,21.80
2019-01-17T07:33:39.167Z,21.57
2019-01-17T07:34:12.406Z,21.75
2019-01-17T07:34:45.584Z,22.15
2019-01-17T07:35:18.714Z,21.65
2019-01-17T07:35:51.774Z,21.95
2019-01-17T07:36:24.998Z,21.85
2019-01-17T07:36:59.770Z,22.22
2019-01-17T07:37:32.798Z,21.93
2019-01-17T07:38:05.952Z,21.85
2019-01-17T07:38:38.962Z,21.87
2019-01-17T07:39:12.065Z,21.80
2019-01-17T07:39:45.080Z,22.17
2019-01-17T07:40:18.248Z,22.37
2019-01-17T07:40:51.150Z,21.70
2019-01-17T07:41:24.224Z,21.90
2019-01-17T07:41:57.230Z,21.60
2019-01-17T07:42:30.191Z,21.33
2019-01-17T07:43:03.386Z,21.75
2019-01-17T07:43:36.310Z,21.35
2019-01-17T07:44:09.459Z,21.35
2019-01-17T07:44:42.596Z,22.00
2019-01-17T07:45:25.920Z,21.73
2019-01-17T07:45:59.102Z,22.10
2019-01-17T07:46:32.116Z,21.50
2019-01-17T07:47:05.291Z,21.90
2019-01-17T07:47:38.446Z,21.42
2019-01-17T07:48:11.532Z,21.37
2019-01-17T07:48:44.638Z,21.12
2019-01-17T07:49:17.682Z,21.50
2019-01-17T07:49:53.542Z,21.60
2019-01-17T07:50:26.598Z,21.60
2019-01-17T07:50:59.791Z,21.20
2019-01-17T07:51:33.006Z,21.33
2019-01-17T07:52:06.256Z,21.10